CDT,Max TemperatureF,Mean TemperatureF,Min TemperatureF,Max Dew PointF,MeanDew PointF,Min DewpointF,Max Humidity, Mean Humidity, Min Humidity, Max Sea Level PressureIn, Mean Sea Level PressureIn, Min Sea Level PressureIn, Max VisibilityMiles, Mean VisibilityMiles, Min VisibilityMiles, Max Wind SpeedMPH, Mean Wind SpeedMPH, Max Gust SpeedMPH,PrecipitationIn, CloudCover, Events, WindDirDegrees
2011-10-1,80,65,50,36,34,31,59,33,19,30.25,30.19,30.14,10,10,10,13,8,20,0.00,0,,145
2011-10-2,86,68,52,35,33,32,50,30,16,30.22,30.14,30.07,10,10,10,20,11,26,0.00,0,,166
2011-10-3,89,74,59,47,40,35,42,31,21,30.16,30.11,30.07,10,10,10,17,15,,0.00,0,,171
2011-10-4,86,70,55,42,40,38,55,33,18,30.17,30.10,30.04,10,10,10,16,12,23,0.00,0,,172
2011-10-5,78,67,59,51,46,38,54,46,38,30.07,30.02,29.94,10,10,10,26,14,34,0.00,3,Rain,165
2011-10-6,82,70,60,61,57,50,78,61,48,29.96,29.87,29.78,10,10,10,32,24,41,0.00,4,Rain,158
2011-10-7,86,78,69,64,63,60,81,66,43,30.00,29.88,29.82,10,10,10,33,25,43,0.00,4,,158
2011-10-8,75,65,57,63,60,55,100,90,66,30.05,29.98,29.84,10,8,1,33,19,45,0.71,7,Rain-Thunderstorm,162
2011-10-9,61,57,53,59,56,51,96,92,87,30.12,30.07,29.98,10,10,5,18,9,26,0.04,7,Rain,33
2011-10-10,68,59,50,56,53,48,100,86,63,30.12,30.06,29.98,10,8,2,14,4,,0.00,3,,206
2011-10-11,73,64,54,61,58,53,97,82,64,29.96,29.85,29.74,10,9,2,22,14,47,0.44,2,Rain-Thunderstorm,174
2011-10-12,81,68,57,61,53,42,100,70,26,29.96,29.83,29.73,10,10,10,20,8,28,0.00,1,,314
2011-10-13,75,62,48,46,39,33,71,44,21,30.07,29.98,29.91,10,10,10,12,9,,0.00,0,,298
2011-10-14,82,70,57,52,46,42,59,46,31,29.99,29.90,29.85,10,10,10,24,15,30,0.00,0,,170
2011-10-15,81,66,53,53,47,38,72,51,35,30.09,30.01,29.96,10,10,10,16,11,22,0.00,0,,135
2011-10-16,89,72,57,52,50,47,77,50,24,29.99,29.93,29.86,10,10,10,18,14,23,0.00,0,,191
2011-10-17,73,62,51,49,43,32,80,56,40,30.01,29.84,29.70,10,10,10,26,11,37,0.00,0,,9
2011-10-18,64,55,46,40,32,24,79,50,23,30.19,30.13,30.04,10,10,8,29,20,44,0.00,1,,342
2011-10-19,64,53,43,30,28,24,58,42,23,30.19,30.12,30.07,10,10,10,21,11,31,0.00,0,,343
2011-10-20,69,54,39,35,31,29,70,46,23,30.09,30.05,29.98,10,10,10,21,9,22,0.00,0,,164
2011-10-21,75,58,41,44,37,34,82,50,23,30.17,30.10,30.06,10,10,10,10,5,,0.00,0,,120
2011-10-22,79,64,48,56,50,42,89,68,44,30.07,30.00,29.91,10,10,10,13,6,,0.00,0,,90
2011-10-23,82,66,51,54,45,35,96,59,19,30.09,30.04,30.00,10,9,4,12,6,18,0.00,0,,296
2011-10-24,84,68,51,48,44,37,83,48,19,30.15,30.07,29.98,10,10,10,28,14,37,0.00,0,,189
2011-10-25,88,72,59,55,52,47,72,53,30,29.97,29.86,29.76,10,10,10,28,20,34,0.00,0,,181
2011-10-26,64,58,48,54,41,35,78,54,41,30.06,29.94,29.78,10,10,10,28,16,34,0.00,0,,9
2011-10-27,46,44,41,40,39,33,96,84,61,30.23,30.16,30.08,10,9,4,28,18,37,0.44,7,Rain,354
2011-10-28,57,47,37,40,35,30,86,66,40,30.35,30.29,30.23,10,10,10,9,7,,0.00,0,,300
2011-10-29,61,50,39,42,38,34,86,65,46,30.26,30.13,29.99,10,10,10,26,14,33,0.00,0,,196
2011-10-30,64,52,41,41,37,35,86,58,33,30.22,30.13,29.97,10,10,10,22,13,30,0.00,0,,83
2011-10-31,70,56,42,47,41,37,82,60,37,30.21,30.12,29.99,10,10,10,20,11,,0.00,0,,195